sensor_id;sensor_type;location;lat;lon;timestamp;temperature;humidity
52725;DHT22;38621;52.830;6.914;2023-08-06T00:00:22;14.40;99.90
52725;DHT22;38621;52.830;6.914;2023-08-06T00:02:48;14.40;99.90
52725;DHT22;38621;52.830;6.914;2023-08-06T00:05:15;14.30;99.90
52725;DHT22;38621;52.830;6.914;2023-08-06T00:07:49;14.40;99.90
52725;DHT22;38621;52.830;6.914;2023-08-06T00:10:16;14.30;99.90
52725;DHT22;38621;52.830;6.914;2023-08-06T00:12:42;14.30;99.90
52725;DHT22;38621;52.830;6.914;2023-08-06T00:15:08;14.30;99.90
52725;DHT22;38621;52.830;6.914;2023-08-06T00:17:34;14.30;99.90
52725;DHT22;38621;52.830;6.914;2023-08-06T00:20:01;14.30;99.90
52725;DHT22;38621;52.830;6.914;2023-08-06T00:22:34;14.30;99.90
52725;DHT22;38621;52.830;6.914;2023-08-06T00:25:00;14.30;99.90
52725;DHT22;38621;52.830;6.914;2023-08-06T00:27:26;14.30;99.90
52725;DHT22;38621;52.830;6.914;2023-08-06T00:29:52;14.20;99.90
52725;DHT22;38621;52.830;6.914;2023-08-06T00:32:18;14.30;99.90
52725;DHT22;38621;52.830;6.914;2023-08-06T00:34:43;14.20;99.90
52725;DHT22;38621;52.830;6.914;2023-08-06T00:37:09;14.20;99.90
52725;DHT22;38621;52.830;6.914;2023-08-06T00:39:35;14.30;99.90
52725;DHT22;38621;52.830;6.914;2023-08-06T00:42:01;14.20;99.90
52725;DHT22;38621;52.830;6.914;2023-08-06T00:44:27;14.30;99.90
52725;DHT22;38621;52.830;6.914;2023-08-06T00:46:52;14.20;99.90
52725;DHT22;38621;52.830;6.914;2023-08-06T00:49:18;14.20;99.90
52725;DHT22;38621;52.830;6.914;2023-08-06T00:51:44;14.20;99.90
52725;DHT22;38621;52.830;6.914;2023-08-06T00:54:10;14.30;99.90
52725;DHT22;38621;52.830;6.914;2023-08-06T00:56:37;14.30;99.90
52725;DHT22;38621;52.830;6.914;2023-08-06T00:59:06;14.30;99.90
52725;DHT22;38621;52.830;6.914;2023-08-06T01:01:31;14.20;99.90
52725;DHT22;38621;52.830;6.914;2023-08-06T01:03:57;14.20;99.90
52725;DHT22;38621;52.830;6.914;2023-08-06T01:06:48;14.30;99.90
52725;DHT22;38621;52.830;6.914;2023-08-06T01:12:18;14.30;99.90
52725;DHT22;38621;52.830;6.914;2023-08-06T01:14:57;14.30;99.90
52725;DHT22;38621;52.830;6.914;2023-08-06T01:17:26;14.30;99.90
52725;DHT22;38621;52.830;6.914;2023-08-06T01:19:53;14.30;99.90
52725;DHT22;38621;52.830;6.914;2023-08-06T01:22:19;14.30;99.90
52725;DHT22;38621;52.830;6.914;2023-08-06T01:24:49;14.30;99.90
52725;DHT22;38621;52.830;6.914;2023-08-06T01:27:22;14.30;99.90
52725;DHT22;38621;52.830;6.914;2023-08-06T01:30:03;14.30;99.90
52725;DHT22;38621;52.830;6.914;2023-08-06T01:32:34;14.30;99.90
52725;DHT22;38621;52.830;6.914;2023-08-06T01:35:02;14.30;99.90
52725;DHT22;38621;52.830;6.914;2023-08-06T01:37:29;14.30;99.90
52725;DHT22;38621;52.830;6.914;2023-08-06T01:39:55;14.30;99.90
52725;DHT22;38621;52.830;6.914;2023-08-06T01:42:21;14.30;99.90
52725;DHT22;38621;52.830;6.914;2023-08-06T01:44:47;14.30;99.90
52725;DHT22;38621;52.830;6.914;2023-08-06T01:47:12;14.30;99.90
52725;DHT22;38621;52.830;6.914;2023-08-06T01:49:38;14.30;99.90
52725;DHT22;38621;52.830;6.914;2023-08-06T01:52:04;14.30;99.90
52725;DHT22;38621;52.830;6.914;2023-08-06T01:54:30;14.30;99.90
52725;DHT22;38621;52.830;6.914;2023-08-06T01:56:55;14.30;99.90
52725;DHT22;38621;52.830;6.914;2023-08-06T01:59:24;14.30;99.90
52725;DHT22;38621;52.830;6.914;2023-08-06T02:01:49;14.30;99.90
52725;DHT22;38621;52.830;6.914;2023-08-06T02:04:15;14.30;99.90
52725;DHT22;38621;52.830;6.914;2023-08-06T02:06:41;14.30;99.90
52725;DHT22;38621;52.830;6.914;2023-08-06T02:09:06;14.30;99.90
52725;DHT22;38621;52.830;6.914;2023-08-06T02:11:32;14.30;99.90
52725;DHT22;38621;52.830;6.914;2023-08-06T02:13:58;14.20;99.90
52725;DHT22;38621;52.830;6.914;2023-08-06T02:16:23;14.20;99.90
52725;DHT22;38621;52.830;6.914;2023-08-06T02:18:49;14.20;99.90
52725;DHT22;38621;52.830;6.914;2023-08-06T02:21:14;14.20;99.90
52725;DHT22;38621;52.830;6.914;2023-08-06T02:23:40;14.20;99.90
52725;DHT22;38621;52.830;6.914;2023-08-06T02:26:06;14.20;99.90
52725;DHT22;38621;52.830;6.914;2023-08-06T02:28:32;14.20;99.90
52725;DHT22;38621;52.830;6.914;2023-08-06T02:30:58;14.20;99.90
52725;DHT22;38621;52.830;6.914;2023-08-06T02:33:24;14.20;99.90
52725;DHT22;38621;52.830;6.914;2023-08-06T02:35:49;14.20;99.90
52725;DHT22;38621;52.830;6.914;2023-08-06T02:38:15;14.20;99.90
52725;DHT22;38621;52.830;6.914;2023-08-06T02:40:45;14.20;99.90
52725;DHT22;38621;52.830;6.914;2023-08-06T02:43:11;14.20;99.90
52725;DHT22;38621;52.830;6.914;2023-08-06T02:45:37;14.20;99.90
52725;DHT22;38621;52.830;6.914;2023-08-06T02:48:03;14.20;99.90
52725;DHT22;38621;52.830;6.914;2023-08-06T02:50:28;14.20;99.90
52725;DHT22;38621;52.830;6.914;2023-08-06T02:52:54;14.10;99.90
52725;DHT22;38621;52.830;6.914;2023-08-06T02:55:20;14.10;99.90
52725;DHT22;38621;52.830;6.914;2023-08-06T02:57:45;14.10;99.90
52725;DHT22;38621;52.830;6.914;2023-08-06T03:00:11;14.10;99.90
52725;DHT22;38621;52.830;6.914;2023-08-06T03:02:37;14.10;99.90
52725;DHT22;38621;52.830;6.914;2023-08-06T03:05:03;14.10;99.90
52725;DHT22;38621;52.830;6.914;2023-08-06T03:07:29;14.10;99.90
52725;DHT22;38621;52.830;6.914;2023-08-06T03:09:55;14.10;99.90
52725;DHT22;38621;52.830;6.914;2023-08-06T03:12:20;14.00;99.90
52725;DHT22;38621;52.830;6.914;2023-08-06T03:14:46;14.00;99.90
52725;DHT22;38621;52.830;6.914;2023-08-06T03:17:11;14.00;99.90
52725;DHT22;38621;52.830;6.914;2023-08-06T03:19:37;13.90;99.90
52725;DHT22;38621;52.830;6.914;2023-08-06T03:22:03;13.90;99.90
52725;DHT22;38621;52.830;6.914;2023-08-06T03:24:29;13.80;99.90
52725;DHT22;38621;52.830;6.914;2023-08-06T03:26:54;13.80;99.90
52725;DHT22;38621;52.830;6.914;2023-08-06T03:29:20;13.80;99.90
52725;DHT22;38621;52.830;6.914;2023-08-06T03:31:47;13.70;99.90
52725;DHT22;38621;52.830;6.914;2023-08-06T03:34:12;13.70;99.90
52725;DHT22;38621;52.830;6.914;2023-08-06T03:36:38;13.60;99.90
52725;DHT22;38621;52.830;6.914;2023-08-06T03:39:04;13.60;99.90
52725;DHT22;38621;52.830;6.914;2023-08-06T03:41:30;13.50;99.90
52725;DHT22;38621;52.830;6.914;2023-08-06T03:43:56;13.50;99.90
52725;DHT22;38621;52.830;6.914;2023-08-06T03:46:21;13.40;99.90
52725;DHT22;38621;52.830;6.914;2023-08-06T03:48:47;13.40;99.90
52725;DHT22;38621;52.830;6.914;2023-08-06T03:51:12;13.30;99.90
52725;DHT22;38621;52.830;6.914;2023-08-06T03:53:44;13.30;99.90
52725;DHT22;38621;52.830;6.914;2023-08-06T03:56:09;13.30;99.90
52725;DHT22;38621;52.830;6.914;2023-08-06T03:58:35;13.30;99.90
52725;DHT22;38621;52.830;6.914;2023-08-06T04:01:01;13.40;99.90
52725;DHT22;38621;52.830;6.914;2023-08-06T04:03:28;13.40;99.90
52725;DHT22;38621;52.830;6.914;2023-08-06T04:05:54;13.40;99.90
52725;DHT22;38621;52.830;6.914;2023-08-06T04:08:20;13.40;99.90
52725;DHT22;38621;52.830;6.914;2023-08-06T04:10:49;13.50;99.90
52725;DHT22;38621;52.830;6.914;2023-08-06T04:13:15;13.50;99.90
52725;DHT22;38621;52.830;6.914;2023-08-06T04:15:40;13.50;99.90
52725;DHT22;38621;52.830;6.914;2023-08-06T04:18:06;13.50;99.90
52725;DHT22;38621;52.830;6.914;2023-08-06T04:20:32;13.40;99.90
52725;DHT22;38621;52.830;6.914;2023-08-06T04:22:57;13.40;99.90
52725;DHT22;38621;52.830;6.914;2023-08-06T04:25:23;13.30;99.90
52725;DHT22;38621;52.830;6.914;2023-08-06T04:27:49;13.40;99.90
52725;DHT22;38621;52.830;6.914;2023-08-06T04:30:15;13.40;99.90
52725;DHT22;38621;52.830;6.914;2023-08-06T04:32:41;13.40;99.90
52725;DHT22;38621;52.830;6.914;2023-08-06T04:35:07;13.40;99.90
52725;DHT22;38621;52.830;6.914;2023-08-06T04:37:33;13.40;99.90
52725;DHT22;38621;52.830;6.914;2023-08-06T04:39:58;13.40;99.90
52725;DHT22;38621;52.830;6.914;2023-08-06T04:42:24;13.50;99.90
52725;DHT22;38621;52.830;6.914;2023-08-06T04:44:50;13.50;99.90
52725;DHT22;38621;52.830;6.914;2023-08-06T04:47:16;13.50;99.90
52725;DHT22;38621;52.830;6.914;2023-08-06T04:49:41;13.50;99.90
52725;DHT22;38621;52.830;6.914;2023-08-06T04:52:07;13.60;99.90
52725;DHT22;38621;52.830;6.914;2023-08-06T04:54:34;13.70;99.90
52725;DHT22;38621;52.830;6.914;2023-08-06T04:56:59;13.70;99.90
52725;DHT22;38621;52.830;6.914;2023-08-06T04:59:25;13.70;99.90
52725;DHT22;38621;52.830;6.914;2023-08-06T05:01:51;13.80;99.90
52725;DHT22;38621;52.830;6.914;2023-08-06T05:04:16;13.90;99.90
52725;DHT22;38621;52.830;6.914;2023-08-06T05:06:42;13.90;99.90
52725;DHT22;38621;52.830;6.914;2023-08-06T05:09:08;13.90;99.90
52725;DHT22;38621;52.830;6.914;2023-08-06T05:11:33;14.00;99.90
52725;DHT22;38621;52.830;6.914;2023-08-06T05:13:59;14.00;99.90
52725;DHT22;38621;52.830;6.914;2023-08-06T05:16:25;14.10;99.90
52725;DHT22;38621;52.830;6.914;2023-08-06T05:18:50;14.10;99.90
52725;DHT22;38621;52.830;6.914;2023-08-06T05:21:16;14.20;99.90
52725;DHT22;38621;52.830;6.914;2023-08-06T05:23:42;14.20;99.90
52725;DHT22;38621;52.830;6.914;2023-08-06T05:26:08;14.20;99.90
52725;DHT22;38621;52.830;6.914;2023-08-06T05:28:34;14.20;99.90
52725;DHT22;38621;52.830;6.914;2023-08-06T05:31:05;14.30;99.90
52725;DHT22;38621;52.830;6.914;2023-08-06T05:33:31;14.30;99.90
52725;DHT22;38621;52.830;6.914;2023-08-06T05:35:57;14.30;99.90
52725;DHT22;38621;52.830;6.914;2023-08-06T05:38:22;14.30;99.90
52725;DHT22;38621;52.830;6.914;2023-08-06T05:40:48;14.30;99.90
52725;DHT22;38621;52.830;6.914;2023-08-06T05:43:14;14.40;99.90
52725;DHT22;38621;52.830;6.914;2023-08-06T05:45:44;14.40;99.90
52725;DHT22;38621;52.830;6.914;2023-08-06T05:48:10;14.40;99.90
52725;DHT22;38621;52.830;6.914;2023-08-06T05:50:36;14.40;99.90
52725;DHT22;38621;52.830;6.914;2023-08-06T05:53:02;14.40;99.90
52725;DHT22;38621;52.830;6.914;2023-08-06T05:55:27;14.50;99.90
52725;DHT22;38621;52.830;6.914;2023-08-06T05:57:53;14.50;99.90
52725;DHT22;38621;52.830;6.914;2023-08-06T06:00:21;14.50;99.90
52725;DHT22;38621;52.830;6.914;2023-08-06T06:02:47;14.50;99.90
52725;DHT22;38621;52.830;6.914;2023-08-06T06:05:13;14.50;99.90
52725;DHT22;38621;52.830;6.914;2023-08-06T06:07:38;14.50;99.90
52725;DHT22;38621;52.830;6.914;2023-08-06T06:10:04;14.60;99.90
52725;DHT22;38621;52.830;6.914;2023-08-06T06:12:30;14.60;99.90
52725;DHT22;38621;52.830;6.914;2023-08-06T06:14:56;14.60;99.90
52725;DHT22;38621;52.830;6.914;2023-08-06T06:17:21;14.70;99.90
52725;DHT22;38621;52.830;6.914;2023-08-06T06:19:47;14.70;99.90
52725;DHT22;38621;52.830;6.914;2023-08-06T06:22:14;14.70;99.90
52725;DHT22;38621;52.830;6.914;2023-08-06T06:24:40;14.80;99.90
52725;DHT22;38621;52.830;6.914;2023-08-06T06:27:05;14.80;99.90
52725;DHT22;38621;52.830;6.914;2023-08-06T06:29:31;14.90;99.90
52725;DHT22;38621;52.830;6.914;2023-08-06T06:31:57;14.90;99.90
52725;DHT22;38621;52.830;6.914;2023-08-06T06:34:22;15.00;99.90
52725;DHT22;38621;52.830;6.914;2023-08-06T06:36:48;15.00;99.90
52725;DHT22;38621;52.830;6.914;2023-08-06T06:39:15;15.00;99.90
52725;DHT22;38621;52.830;6.914;2023-08-06T06:41:41;15.00;99.90
52725;DHT22;38621;52.830;6.914;2023-08-06T06:44:07;15.10;99.90
52725;DHT22;38621;52.830;6.914;2023-08-06T06:46:32;15.10;99.90
52725;DHT22;38621;52.830;6.914;2023-08-06T06:48:58;15.10;99.90
52725;DHT22;38621;52.830;6.914;2023-08-06T06:51:23;15.20;99.90
52725;DHT22;38621;52.830;6.914;2023-08-06T06:53:49;15.20;99.90
52725;DHT22;38621;52.830;6.914;2023-08-06T06:56:15;15.30;99.90
52725;DHT22;38621;52.830;6.914;2023-08-06T06:58:40;15.30;99.90
52725;DHT22;38621;52.830;6.914;2023-08-06T07:01:07;15.40;99.90
52725;DHT22;38621;52.830;6.914;2023-08-06T07:03:33;15.50;99.90
52725;DHT22;38621;52.830;6.914;2023-08-06T07:05:58;15.70;99.90
52725;DHT22;38621;52.830;6.914;2023-08-06T07:08:25;15.80;99.90
52725;DHT22;38621;52.830;6.914;2023-08-06T07:10:51;15.80;99.90
52725;DHT22;38621;52.830;6.914;2023-08-06T07:13:24;15.80;99.90
52725;DHT22;38621;52.830;6.914;2023-08-06T07:15:50;15.80;99.90
52725;DHT22;38621;52.830;6.914;2023-08-06T07:18:15;15.80;99.90
52725;DHT22;38621;52.830;6.914;2023-08-06T07:20:41;15.80;99.90
52725;DHT22;38621;52.830;6.914;2023-08-06T07:23:07;15.80;99.90
52725;DHT22;38621;52.830;6.914;2023-08-06T07:25:32;15.90;99.90
52725;DHT22;38621;52.830;6.914;2023-08-06T07:27:58;15.90;99.90
52725;DHT22;38621;52.830;6.914;2023-08-06T07:30:24;15.90;99.90
52725;DHT22;38621;52.830;6.914;2023-08-06T07:32:49;16.00;99.90
52725;DHT22;38621;52.830;6.914;2023-08-06T07:35:15;16.10;99.90
52725;DHT22;38621;52.830;6.914;2023-08-06T07:37:41;16.10;99.90
52725;DHT22;38621;52.830;6.914;2023-08-06T07:40:07;16.20;99.90
52725;DHT22;38621;52.830;6.914;2023-08-06T07:42:33;16.30;99.90
52725;DHT22;38621;52.830;6.914;2023-08-06T07:44:59;16.40;99.90
52725;DHT22;38621;52.830;6.914;2023-08-06T07:47:25;16.50;99.90
52725;DHT22;38621;52.830;6.914;2023-08-06T07:49:50;16.60;99.90
52725;DHT22;38621;52.830;6.914;2023-08-06T07:52:16;16.50;99.90
52725;DHT22;38621;52.830;6.914;2023-08-06T07:54:42;16.50;99.90
52725;DHT22;38621;52.830;6.914;2023-08-06T07:57:08;16.50;99.90
52725;DHT22;38621;52.830;6.914;2023-08-06T07:59:33;16.40;99.90
52725;DHT22;38621;52.830;6.914;2023-08-06T08:02:00;16.40;99.90
52725;DHT22;38621;52.830;6.914;2023-08-06T08:04:25;16.50;99.90
52725;DHT22;38621;52.830;6.914;2023-08-06T08:06:51;16.50;99.90
52725;DHT22;38621;52.830;6.914;2023-08-06T08:09:17;16.50;99.90
52725;DHT22;38621;52.830;6.914;2023-08-06T08:11:43;16.60;99.90
52725;DHT22;38621;52.830;6.914;2023-08-06T08:14:09;16.60;99.90
52725;DHT22;38621;52.830;6.914;2023-08-06T08:16:35;16.70;99.90
52725;DHT22;38621;52.830;6.914;2023-08-06T08:19:00;16.70;99.90
52725;DHT22;38621;52.830;6.914;2023-08-06T08:21:26;16.80;99.90
52725;DHT22;38621;52.830;6.914;2023-08-06T08:23:52;16.80;99.90
52725;DHT22;38621;52.830;6.914;2023-08-06T08:26:18;16.90;99.90
52725;DHT22;38621;52.830;6.914;2023-08-06T08:28:43;16.90;99.90
52725;DHT22;38621;52.830;6.914;2023-08-06T08:31:09;17.00;99.90
52725;DHT22;38621;52.830;6.914;2023-08-06T08:33:37;17.00;99.90
52725;DHT22;38621;52.830;6.914;2023-08-06T08:36:03;17.10;99.90
52725;DHT22;38621;52.830;6.914;2023-08-06T08:38:29;17.20;99.90
52725;DHT22;38621;52.830;6.914;2023-08-06T08:40:55;17.30;99.90
52725;DHT22;38621;52.830;6.914;2023-08-06T08:43:21;17.50;99.90
52725;DHT22;38621;52.830;6.914;2023-08-06T08:45:50;17.60;99.90
52725;DHT22;38621;52.830;6.914;2023-08-06T08:48:17;17.80;99.90
52725;DHT22;38621;52.830;6.914;2023-08-06T08:50:45;17.80;99.90
52725;DHT22;38621;52.830;6.914;2023-08-06T08:53:13;17.80;99.90
52725;DHT22;38621;52.830;6.914;2023-08-06T08:55:39;17.80;99.90
52725;DHT22;38621;52.830;6.914;2023-08-06T08:58:06;17.80;99.90
52725;DHT22;38621;52.830;6.914;2023-08-06T09:00:32;17.90;99.90
52725;DHT22;38621;52.830;6.914;2023-08-06T09:02:59;18.00;99.90
52725;DHT22;38621;52.830;6.914;2023-08-06T09:05:26;18.00;99.90
52725;DHT22;38621;52.830;6.914;2023-08-06T09:07:55;18.10;99.90
52725;DHT22;38621;52.830;6.914;2023-08-06T09:10:22;18.10;99.90
52725;DHT22;38621;52.830;6.914;2023-08-06T09:12:51;18.00;99.90
52725;DHT22;38621;52.830;6.914;2023-08-06T09:15:20;18.10;99.90
52725;DHT22;38621;52.830;6.914;2023-08-06T09:17:45;18.10;99.90
52725;DHT22;38621;52.830;6.914;2023-08-06T09:20:15;18.20;99.90
52725;DHT22;38621;52.830;6.914;2023-08-06T09:22:41;18.10;99.90
52725;DHT22;38621;52.830;6.914;2023-08-06T09:25:07;18.10;99.90
52725;DHT22;38621;52.830;6.914;2023-08-06T09:27:37;18.10;99.90
52725;DHT22;38621;52.830;6.914;2023-08-06T09:30:04;18.20;99.90
52725;DHT22;38621;52.830;6.914;2023-08-06T09:32:48;18.30;99.90
52725;DHT22;38621;52.830;6.914;2023-08-06T09:35:17;18.40;99.90
52725;DHT22;38621;52.830;6.914;2023-08-06T09:37:43;18.50;99.90
52725;DHT22;38621;52.830;6.914;2023-08-06T09:40:29;18.50;99.90
52725;DHT22;38621;52.830;6.914;2023-08-06T09:42:55;18.40;99.90
52725;DHT22;38621;52.830;6.914;2023-08-06T09:45:21;18.40;99.90
52725;DHT22;38621;52.830;6.914;2023-08-06T09:47:50;18.50;99.90
52725;DHT22;38621;52.830;6.914;2023-08-06T09:50:19;18.60;99.90
52725;DHT22;38621;52.830;6.914;2023-08-06T09:52:50;18.70;99.90
52725;DHT22;38621;52.830;6.914;2023-08-06T09:55:16;18.80;99.90
52725;DHT22;38621;52.830;6.914;2023-08-06T09:57:42;18.90;99.90
52725;DHT22;38621;52.830;6.914;2023-08-06T10:00:09;19.00;99.90
52725;DHT22;38621;52.830;6.914;2023-08-06T10:02:39;19.10;99.90
52725;DHT22;38621;52.830;6.914;2023-08-06T10:05:07;19.20;99.90
52725;DHT22;38621;52.830;6.914;2023-08-06T10:07:33;19.30;99.90
52725;DHT22;38621;52.830;6.914;2023-08-06T10:09:59;19.40;99.90
52725;DHT22;38621;52.830;6.914;2023-08-06T10:12:28;19.50;99.90
52725;DHT22;38621;52.830;6.914;2023-08-06T10:14:57;19.50;99.90
52725;DHT22;38621;52.830;6.914;2023-08-06T10:17:25;19.60;99.90
52725;DHT22;38621;52.830;6.914;2023-08-06T10:19:52;19.60;99.90
52725;DHT22;38621;52.830;6.914;2023-08-06T10:22:20;19.70;99.90
52725;DHT22;38621;52.830;6.914;2023-08-06T10:24:54;19.80;99.90
52725;DHT22;38621;52.830;6.914;2023-08-06T10:27:22;19.90;99.90
52725;DHT22;38621;52.830;6.914;2023-08-06T10:29:48;20.00;99.90
52725;DHT22;38621;52.830;6.914;2023-08-06T10:32:16;20.10;99.90
52725;DHT22;38621;52.830;6.914;2023-08-06T10:34:57;20.20;99.90
52725;DHT22;38621;52.830;6.914;2023-08-06T10:37:25;20.20;99.90
52725;DHT22;38621;52.830;6.914;2023-08-06T10:39:59;20.40;99.90
52725;DHT22;38621;52.830;6.914;2023-08-06T10:42:29;20.50;99.90
52725;DHT22;38621;52.830;6.914;2023-08-06T10:45:17;20.60;99.90
52725;DHT22;38621;52.830;6.914;2023-08-06T10:47:44;20.80;99.90
52725;DHT22;38621;52.830;6.914;2023-08-06T10:50:15;21.00;99.90
52725;DHT22;38621;52.830;6.914;2023-08-06T10:52:45;21.20;99.90
52725;DHT22;38621;52.830;6.914;2023-08-06T10:55:11;21.50;99.90
52725;DHT22;38621;52.830;6.914;2023-08-06T10:57:37;21.50;99.90
52725;DHT22;38621;52.830;6.914;2023-08-06T11:00:07;21.70;99.90
52725;DHT22;38621;52.830;6.914;2023-08-06T11:02:36;21.90;99.90
52725;DHT22;38621;52.830;6.914;2023-08-06T11:05:07;22.00;99.90
52725;DHT22;38621;52.830;6.914;2023-08-06T11:07:36;22.30;99.90
52725;DHT22;38621;52.830;6.914;2023-08-06T11:10:07;22.50;99.90
52725;DHT22;38621;52.830;6.914;2023-08-06T11:12:33;22.50;99.90
52725;DHT22;38621;52.830;6.914;2023-08-06T11:15:00;22.20;99.90
52725;DHT22;38621;52.830;6.914;2023-08-06T11:17:30;22.20;99.90
52725;DHT22;38621;52.830;6.914;2023-08-06T11:19:56;22.30;99.90
52725;DHT22;38621;52.830;6.914;2023-08-06T11:22:24;22.20;99.90
52725;DHT22;38621;52.830;6.914;2023-08-06T11:24:50;21.90;99.90
52725;DHT22;38621;52.830;6.914;2023-08-06T11:27:16;21.70;99.90
52725;DHT22;38621;52.830;6.914;2023-08-06T11:29:43;21.40;99.90
52725;DHT22;38621;52.830;6.914;2023-08-06T11:32:10;21.10;99.90
52725;DHT22;38621;52.830;6.914;2023-08-06T11:34:36;21.00;99.90
52725;DHT22;38621;52.830;6.914;2023-08-06T11:37:06;20.90;99.90
52725;DHT22;38621;52.830;6.914;2023-08-06T11:39:35;20.70;99.90
52725;DHT22;38621;52.830;6.914;2023-08-06T11:42:03;20.70;99.90
52725;DHT22;38621;52.830;6.914;2023-08-06T11:44:35;20.60;99.90
52725;DHT22;38621;52.830;6.914;2023-08-06T11:47:02;20.50;99.90
52725;DHT22;38621;52.830;6.914;2023-08-06T11:49:47;20.40;99.90
52725;DHT22;38621;52.830;6.914;2023-08-06T11:52:25;20.40;99.90
52725;DHT22;38621;52.830;6.914;2023-08-06T11:55:06;20.40;99.90
52725;DHT22;38621;52.830;6.914;2023-08-06T11:57:39;20.30;99.90
52725;DHT22;38621;52.830;6.914;2023-08-06T12:00:12;20.30;99.90
52725;DHT22;38621;52.830;6.914;2023-08-06T12:02:45;20.30;99.90
52725;DHT22;38621;52.830;6.914;2023-08-06T12:05:18;20.30;99.90
52725;DHT22;38621;52.830;6.914;2023-08-06T12:07:47;20.40;99.90
52725;DHT22;38621;52.830;6.914;2023-08-06T12:10:14;20.50;99.90
52725;DHT22;38621;52.830;6.914;2023-08-06T12:12:40;20.50;99.90
52725;DHT22;38621;52.830;6.914;2023-08-06T12:15:07;20.50;99.90
52725;DHT22;38621;52.830;6.914;2023-08-06T12:17:33;20.50;99.90
52725;DHT22;38621;52.830;6.914;2023-08-06T12:19:59;20.60;99.90
52725;DHT22;38621;52.830;6.914;2023-08-06T12:22:25;20.60;99.90
52725;DHT22;38621;52.830;6.914;2023-08-06T12:24:51;20.70;99.90
52725;DHT22;38621;52.830;6.914;2023-08-06T12:27:17;20.80;99.90
52725;DHT22;38621;52.830;6.914;2023-08-06T12:29:45;20.90;99.90
52725;DHT22;38621;52.830;6.914;2023-08-06T12:32:11;20.90;99.90
52725;DHT22;38621;52.830;6.914;2023-08-06T12:34:38;20.80;99.90
52725;DHT22;38621;52.830;6.914;2023-08-06T12:37:05;20.80;99.90
52725;DHT22;38621;52.830;6.914;2023-08-06T12:39:32;20.70;99.90
52725;DHT22;38621;52.830;6.914;2023-08-06T12:42:01;20.70;99.90
52725;DHT22;38621;52.830;6.914;2023-08-06T12:44:27;20.60;99.90
52725;DHT22;38621;52.830;6.914;2023-08-06T12:46:53;20.60;99.90
52725;DHT22;38621;52.830;6.914;2023-08-06T12:49:19;20.60;99.90
52725;DHT22;38621;52.830;6.914;2023-08-06T12:51:51;20.50;99.90
52725;DHT22;38621;52.830;6.914;2023-08-06T12:54:17;20.40;99.90
52725;DHT22;38621;52.830;6.914;2023-08-06T12:56:44;20.40;99.90
52725;DHT22;38621;52.830;6.914;2023-08-06T12:59:10;20.40;99.90
52725;DHT22;38621;52.830;6.914;2023-08-06T13:01:37;20.30;99.90
52725;DHT22;38621;52.830;6.914;2023-08-06T13:04:03;20.30;99.90
52725;DHT22;38621;52.830;6.914;2023-08-06T13:06:29;20.30;99.90
52725;DHT22;38621;52.830;6.914;2023-08-06T13:08:56;20.20;99.90
52725;DHT22;38621;52.830;6.914;2023-08-06T13:11:23;20.10;99.90
52725;DHT22;38621;52.830;6.914;2023-08-06T13:13:49;20.10;99.90
52725;DHT22;38621;52.830;6.914;2023-08-06T13:16:15;20.10;99.90
52725;DHT22;38621;52.830;6.914;2023-08-06T13:18:40;20.00;99.90
52725;DHT22;38621;52.830;6.914;2023-08-06T13:21:06;20.00;99.90
52725;DHT22;38621;52.830;6.914;2023-08-06T13:23:32;19.90;99.90
52725;DHT22;38621;52.830;6.914;2023-08-06T13:25:58;20.00;99.90
52725;DHT22;38621;52.830;6.914;2023-08-06T13:28:24;19.90;99.90
52725;DHT22;38621;52.830;6.914;2023-08-06T13:30:49;19.90;99.90
52725;DHT22;38621;52.830;6.914;2023-08-06T13:33:15;19.90;99.90
52725;DHT22;38621;52.830;6.914;2023-08-06T13:35:41;19.90;99.90
52725;DHT22;38621;52.830;6.914;2023-08-06T13:38:07;19.90;99.90
52725;DHT22;38621;52.830;6.914;2023-08-06T13:40:33;19.80;99.90
52725;DHT22;38621;52.830;6.914;2023-08-06T13:43:00;19.80;99.90
52725;DHT22;38621;52.830;6.914;2023-08-06T13:45:26;19.70;99.90
52725;DHT22;38621;52.830;6.914;2023-08-06T13:47:51;19.80;99.90
52725;DHT22;38621;52.830;6.914;2023-08-06T13:50:17;19.70;99.90
52725;DHT22;38621;52.830;6.914;2023-08-06T13:52:44;19.70;99.90
52725;DHT22;38621;52.830;6.914;2023-08-06T13:55:10;19.70;99.90
52725;DHT22;38621;52.830;6.914;2023-08-06T13:57:35;19.70;99.90
52725;DHT22;38621;52.830;6.914;2023-08-06T14:00:02;19.70;99.90
52725;DHT22;38621;52.830;6.914;2023-08-06T14:02:28;19.70;99.90
52725;DHT22;38621;52.830;6.914;2023-08-06T14:04:55;19.70;99.90
52725;DHT22;38621;52.830;6.914;2023-08-06T14:07:21;19.70;99.90
52725;DHT22;38621;52.830;6.914;2023-08-06T14:09:46;19.70;99.90
52725;DHT22;38621;52.830;6.914;2023-08-06T14:12:13;19.70;99.90
52725;DHT22;38621;52.830;6.914;2023-08-06T14:14:40;19.60;99.90
52725;DHT22;38621;52.830;6.914;2023-08-06T14:17:05;19.60;99.90
52725;DHT22;38621;52.830;6.914;2023-08-06T14:19:31;19.60;99.90
52725;DHT22;38621;52.830;6.914;2023-08-06T14:21:57;19.50;99.90
52725;DHT22;38621;52.830;6.914;2023-08-06T14:24:23;19.50;99.90
52725;DHT22;38621;52.830;6.914;2023-08-06T14:26:48;19.40;99.90
52725;DHT22;38621;52.830;6.914;2023-08-06T14:29:14;19.40;99.90
52725;DHT22;38621;52.830;6.914;2023-08-06T14:31:40;19.30;99.90
52725;DHT22;38621;52.830;6.914;2023-08-06T14:34:06;19.30;99.90
52725;DHT22;38621;52.830;6.914;2023-08-06T14:36:32;19.30;99.90
52725;DHT22;38621;52.830;6.914;2023-08-06T14:38:58;19.30;99.90
52725;DHT22;38621;52.830;6.914;2023-08-06T14:41:24;19.30;99.90
52725;DHT22;38621;52.830;6.914;2023-08-06T14:43:50;19.30;99.90
52725;DHT22;38621;52.830;6.914;2023-08-06T14:46:16;19.30;99.90
52725;DHT22;38621;52.830;6.914;2023-08-06T14:48:42;19.40;99.90
52725;DHT22;38621;52.830;6.914;2023-08-06T14:51:08;19.40;99.90
52725;DHT22;38621;52.830;6.914;2023-08-06T14:53:34;19.60;99.90
52725;DHT22;38621;52.830;6.914;2023-08-06T14:56:00;19.60;99.90
52725;DHT22;38621;52.830;6.914;2023-08-06T14:58:26;19.80;99.90
52725;DHT22;38621;52.830;6.914;2023-08-06T15:00:52;19.90;99.90
52725;DHT22;38621;52.830;6.914;2023-08-06T15:03:18;20.00;99.90
52725;DHT22;38621;52.830;6.914;2023-08-06T15:05:46;20.20;99.90
52725;DHT22;38621;52.830;6.914;2023-08-06T15:08:12;20.30;99.90
52725;DHT22;38621;52.830;6.914;2023-08-06T15:10:38;20.30;99.90
52725;DHT22;38621;52.830;6.914;2023-08-06T15:13:04;20.40;99.90
52725;DHT22;38621;52.830;6.914;2023-08-06T15:15:29;20.40;99.90
52725;DHT22;38621;52.830;6.914;2023-08-06T15:17:55;20.30;99.90
52725;DHT22;38621;52.830;6.914;2023-08-06T15:20:22;20.40;99.90
52725;DHT22;38621;52.830;6.914;2023-08-06T15:22:48;20.30;99.90
52725;DHT22;38621;52.830;6.914;2023-08-06T15:25:14;20.40;99.90
52725;DHT22;38621;52.830;6.914;2023-08-06T15:27:39;20.30;99.90
52725;DHT22;38621;52.830;6.914;2023-08-06T15:30:06;20.30;99.90